sensor_id;sensor_type;location;lat;lon;timestamp;temperature;humidity
2839;DHT22;1427;48.510;9.060;2022-08-25T00:00:17;19.50;99.90
2839;DHT22;1427;48.510;9.060;2022-08-25T00:02:46;19.40;99.90
2839;DHT22;1427;48.510;9.060;2022-08-25T00:05:25;19.40;99.90
2839;DHT22;1427;48.510;9.060;2022-08-25T00:07:59;19.40;99.90
2839;DHT22;1427;48.510;9.060;2022-08-25T00:10:28;19.40;99.90
2839;DHT22;1427;48.510;9.060;2022-08-25T00:12:56;19.20;99.90
2839;DHT22;1427;48.510;9.060;2022-08-25T00:15:24;19.10;99.90
2839;DHT22;1427;48.510;9.060;2022-08-25T00:17:52;19.10;99.90
2839;DHT22;1427;48.510;9.060;2022-08-25T00:20:20;18.90;99.90
2839;DHT22;1427;48.510;9.060;2022-08-25T00:22:49;18.90;99.90
2839;DHT22;1427;48.510;9.060;2022-08-25T00:25:18;18.80;99.90
2839;DHT22;1427;48.510;9.060;2022-08-25T00:27:46;18.80;99.90
2839;DHT22;1427;48.510;9.060;2022-08-25T00:30:15;18.90;99.90
2839;DHT22;1427;48.510;9.060;2022-08-25T00:32:44;18.80;99.90
2839;DHT22;1427;48.510;9.060;2022-08-25T00:35:24;18.70;99.90
2839;DHT22;1427;48.510;9.060;2022-08-25T00:37:52;18.70;99.90
2839;DHT22;1427;48.510;9.060;2022-08-25T00:40:23;18.70;99.90
2839;DHT22;1427;48.510;9.060;2022-08-25T00:42:52;18.70;99.90
2839;DHT22;1427;48.510;9.060;2022-08-25T00:45:21;18.60;99.90
2839;DHT22;1427;48.510;9.060;2022-08-25T00:47:50;18.80;99.90
2839;DHT22;1427;48.510;9.060;2022-08-25T00:50:19;18.70;99.90
2839;DHT22;1427;48.510;9.060;2022-08-25T00:52:54;18.80;99.90
2839;DHT22;1427;48.510;9.060;2022-08-25T00:55:26;18.80;99.90
2839;DHT22;1427;48.510;9.060;2022-08-25T00:57:57;18.80;99.90
2839;DHT22;1427;48.510;9.060;2022-08-25T01:00:31;18.80;99.90
2839;DHT22;1427;48.510;9.060;2022-08-25T01:03:00;18.70;99.90
2839;DHT22;1427;48.510;9.060;2022-08-25T01:05:28;18.70;99.90
2839;DHT22;1427;48.510;9.060;2022-08-25T01:07:58;18.60;99.90
2839;DHT22;1427;48.510;9.060;2022-08-25T01:10:35;18.60;99.90
2839;DHT22;1427;48.510;9.060;2022-08-25T01:13:06;18.60;99.90
2839;DHT22;1427;48.510;9.060;2022-08-25T01:15:42;18.60;99.90
2839;DHT22;1427;48.510;9.060;2022-08-25T01:18:11;18.50;99.90
2839;DHT22;1427;48.510;9.060;2022-08-25T01:20:39;18.40;99.90
2839;DHT22;1427;48.510;9.060;2022-08-25T01:23:08;18.40;99.90
2839;DHT22;1427;48.510;9.060;2022-08-25T01:25:42;18.40;99.90
2839;DHT22;1427;48.510;9.060;2022-08-25T01:28:12;18.30;99.90
2839;DHT22;1427;48.510;9.060;2022-08-25T01:30:40;18.10;99.90
2839;DHT22;1427;48.510;9.060;2022-08-25T01:33:10;18.00;99.90
2839;DHT22;1427;48.510;9.060;2022-08-25T01:35:39;17.90;99.90
2839;DHT22;1427;48.510;9.060;2022-08-25T01:38:08;18.00;99.90
2839;DHT22;1427;48.510;9.060;2022-08-25T01:40:38;17.90;99.90
2839;DHT22;1427;48.510;9.060;2022-08-25T01:43:11;18.00;99.90
2839;DHT22;1427;48.510;9.060;2022-08-25T01:45:46;18.10;99.90
2839;DHT22;1427;48.510;9.060;2022-08-25T01:48:16;18.10;99.90
2839;DHT22;1427;48.510;9.060;2022-08-25T01:50:45;18.10;99.90
2839;DHT22;1427;48.510;9.060;2022-08-25T01:53:22;18.10;99.90
2839;DHT22;1427;48.510;9.060;2022-08-25T01:55:50;18.20;99.90
2839;DHT22;1427;48.510;9.060;2022-08-25T01:58:21;18.20;99.90
2839;DHT22;1427;48.510;9.060;2022-08-25T02:00:52;18.10;99.90
2839;DHT22;1427;48.510;9.060;2022-08-25T02:03:23;17.80;99.90
2839;DHT22;1427;48.510;9.060;2022-08-25T02:05:52;17.80;99.90
2839;DHT22;1427;48.510;9.060;2022-08-25T02:08:22;17.60;99.90
2839;DHT22;1427;48.510;9.060;2022-08-25T02:10:51;17.60;99.90
2839;DHT22;1427;48.510;9.060;2022-08-25T02:13:22;17.60;99.90
2839;DHT22;1427;48.510;9.060;2022-08-25T02:15:58;17.50;99.90
2839;DHT22;1427;48.510;9.060;2022-08-25T02:18:26;17.50;99.90
2839;DHT22;1427;48.510;9.060;2022-08-25T02:20:55;17.40;99.90
2839;DHT22;1427;48.510;9.060;2022-08-25T02:23:24;17.30;99.90
2839;DHT22;1427;48.510;9.060;2022-08-25T02:25:52;17.20;99.90
2839;DHT22;1427;48.510;9.060;2022-08-25T02:28:20;17.20;99.90
2839;DHT22;1427;48.510;9.060;2022-08-25T02:30:48;17.20;99.90
2839;DHT22;1427;48.510;9.060;2022-08-25T02:33:24;17.30;99.90
2839;DHT22;1427;48.510;9.060;2022-08-25T02:35:52;17.50;99.90
2839;DHT22;1427;48.510;9.060;2022-08-25T02:38:25;17.40;99.90
2839;DHT22;1427;48.510;9.060;2022-08-25T02:40:54;17.20;99.90
2839;DHT22;1427;48.510;9.060;2022-08-25T02:43:22;17.30;99.90
2839;DHT22;1427;48.510;9.060;2022-08-25T02:45:51;17.30;99.90
2839;DHT22;1427;48.510;9.060;2022-08-25T02:48:19;17.30;99.90
2839;DHT22;1427;48.510;9.060;2022-08-25T02:50:47;17.30;99.90
2839;DHT22;1427;48.510;9.060;2022-08-25T02:53:18;17.40;99.90
2839;DHT22;1427;48.510;9.060;2022-08-25T02:55:47;17.60;99.90
2839;DHT22;1427;48.510;9.060;2022-08-25T02:58:15;17.50;99.90
2839;DHT22;1427;48.510;9.060;2022-08-25T03:00:44;17.50;99.90
2839;DHT22;1427;48.510;9.060;2022-08-25T03:03:12;17.50;99.90
2839;DHT22;1427;48.510;9.060;2022-08-25T03:05:40;17.50;99.90
2839;DHT22;1427;48.510;9.060;2022-08-25T03:08:10;17.50;99.90
2839;DHT22;1427;48.510;9.060;2022-08-25T03:10:38;17.40;99.90
2839;DHT22;1427;48.510;9.060;2022-08-25T03:13:08;17.50;99.90
2839;DHT22;1427;48.510;9.060;2022-08-25T03:15:35;17.30;99.90
2839;DHT22;1427;48.510;9.060;2022-08-25T03:18:05;17.20;99.90
2839;DHT22;1427;48.510;9.060;2022-08-25T03:20:34;17.00;99.90
2839;DHT22;1427;48.510;9.060;2022-08-25T03:23:03;17.10;99.90
2839;DHT22;1427;48.510;9.060;2022-08-25T03:25:32;16.80;99.90
2839;DHT22;1427;48.510;9.060;2022-08-25T03:28:21;16.80;99.90
2839;DHT22;1427;48.510;9.060;2022-08-25T03:30:56;16.90;99.90
2839;DHT22;1427;48.510;9.060;2022-08-25T03:33:26;16.90;99.90
2839;DHT22;1427;48.510;9.060;2022-08-25T03:35:54;17.00;99.90
2839;DHT22;1427;48.510;9.060;2022-08-25T03:38:23;17.00;99.90
2839;DHT22;1427;48.510;9.060;2022-08-25T03:40:52;17.00;99.90
2839;DHT22;1427;48.510;9.060;2022-08-25T03:43:21;17.00;99.90
2839;DHT22;1427;48.510;9.060;2022-08-25T03:45:49;17.00;99.90
2839;DHT22;1427;48.510;9.060;2022-08-25T03:48:18;16.90;99.90
2839;DHT22;1427;48.510;9.060;2022-08-25T03:50:48;17.00;99.90
2839;DHT22;1427;48.510;9.060;2022-08-25T03:53:18;16.90;99.90
2839;DHT22;1427;48.510;9.060;2022-08-25T03:55:46;16.90;99.90
2839;DHT22;1427;48.510;9.060;2022-08-25T03:58:14;16.80;99.90
2839;DHT22;1427;48.510;9.060;2022-08-25T04:00:45;16.80;99.90
2839;DHT22;1427;48.510;9.060;2022-08-25T04:03:13;16.80;99.90
2839;DHT22;1427;48.510;9.060;2022-08-25T04:05:41;16.70;99.90
2839;DHT22;1427;48.510;9.060;2022-08-25T04:08:09;16.70;99.90
2839;DHT22;1427;48.510;9.060;2022-08-25T04:10:37;16.60;99.90
2839;DHT22;1427;48.510;9.060;2022-08-25T04:13:05;16.70;99.90
2839;DHT22;1427;48.510;9.060;2022-08-25T04:15:33;16.70;99.90
2839;DHT22;1427;48.510;9.060;2022-08-25T04:18:03;16.60;99.90
2839;DHT22;1427;48.510;9.060;2022-08-25T04:20:31;16.50;99.90
2839;DHT22;1427;48.510;9.060;2022-08-25T04:22:59;16.50;99.90
2839;DHT22;1427;48.510;9.060;2022-08-25T04:25:28;16.50;99.90
2839;DHT22;1427;48.510;9.060;2022-08-25T04:27:57;16.50;99.90
2839;DHT22;1427;48.510;9.060;2022-08-25T04:30:25;16.40;99.90
2839;DHT22;1427;48.510;9.060;2022-08-25T04:32:53;16.40;99.90
2839;DHT22;1427;48.510;9.060;2022-08-25T04:35:22;16.30;99.90
2839;DHT22;1427;48.510;9.060;2022-08-25T04:37:50;16.40;99.90
2839;DHT22;1427;48.510;9.060;2022-08-25T04:40:18;16.40;99.90
2839;DHT22;1427;48.510;9.060;2022-08-25T04:42:54;16.50;99.90
2839;DHT22;1427;48.510;9.060;2022-08-25T04:45:22;16.60;99.90
2839;DHT22;1427;48.510;9.060;2022-08-25T04:47:51;16.50;99.90
2839;DHT22;1427;48.510;9.060;2022-08-25T04:50:22;16.40;99.90
2839;DHT22;1427;48.510;9.060;2022-08-25T04:52:51;16.30;99.90
2839;DHT22;1427;48.510;9.060;2022-08-25T04:55:19;16.30;99.90
2839;DHT22;1427;48.510;9.060;2022-08-25T04:57:47;16.30;99.90
2839;DHT22;1427;48.510;9.060;2022-08-25T05:00:16;16.20;99.90
2839;DHT22;1427;48.510;9.060;2022-08-25T05:02:44;16.20;99.90
2839;DHT22;1427;48.510;9.060;2022-08-25T05:05:12;16.10;99.90
2839;DHT22;1427;48.510;9.060;2022-08-25T05:07:42;16.30;99.90
2839;DHT22;1427;48.510;9.060;2022-08-25T05:10:10;16.30;99.90
2839;DHT22;1427;48.510;9.060;2022-08-25T05:12:38;16.30;99.90
2839;DHT22;1427;48.510;9.060;2022-08-25T05:15:07;16.40;99.90
2839;DHT22;1427;48.510;9.060;2022-08-25T05:17:49;16.50;99.90
2839;DHT22;1427;48.510;9.060;2022-08-25T05:20:22;16.70;99.90
2839;DHT22;1427;48.510;9.060;2022-08-25T05:22:51;17.10;99.90
2839;DHT22;1427;48.510;9.060;2022-08-25T05:25:19;17.40;99.90
2839;DHT22;1427;48.510;9.060;2022-08-25T05:27:47;18.10;99.90
2839;DHT22;1427;48.510;9.060;2022-08-25T05:30:16;18.40;99.90
2839;DHT22;1427;48.510;9.060;2022-08-25T05:32:44;18.70;99.90
2839;DHT22;1427;48.510;9.060;2022-08-25T05:35:12;18.50;99.90
2839;DHT22;1427;48.510;9.060;2022-08-25T05:37:41;18.80;99.90
2839;DHT22;1427;48.510;9.060;2022-08-25T05:40:10;19.20;99.90
2839;DHT22;1427;48.510;9.060;2022-08-25T05:42:38;19.60;99.90
2839;DHT22;1427;48.510;9.060;2022-08-25T05:45:07;19.70;99.90
2839;DHT22;1427;48.510;9.060;2022-08-25T05:47:46;20.10;99.90
2839;DHT22;1427;48.510;9.060;2022-08-25T05:50:14;20.30;99.90
2839;DHT22;1427;48.510;9.060;2022-08-25T05:52:43;20.70;99.90
2839;DHT22;1427;48.510;9.060;2022-08-25T05:55:13;20.70;99.90
2839;DHT22;1427;48.510;9.060;2022-08-25T05:57:41;20.70;99.90
2839;DHT22;1427;48.510;9.060;2022-08-25T06:00:10;20.80;99.90
2839;DHT22;1427;48.510;9.060;2022-08-25T06:02:39;20.90;99.90
2839;DHT22;1427;48.510;9.060;2022-08-25T06:05:07;21.10;99.90
2839;DHT22;1427;48.510;9.060;2022-08-25T06:07:35;21.40;99.90
2839;DHT22;1427;48.510;9.060;2022-08-25T06:10:05;21.60;99.90
2839;DHT22;1427;48.510;9.060;2022-08-25T06:12:34;21.80;99.90
2839;DHT22;1427;48.510;9.060;2022-08-25T06:15:04;21.90;99.90
2839;DHT22;1427;48.510;9.060;2022-08-25T06:17:33;21.70;99.90
2839;DHT22;1427;48.510;9.060;2022-08-25T06:20:08;21.70;99.90
2839;DHT22;1427;48.510;9.060;2022-08-25T06:22:37;21.40;99.90
2839;DHT22;1427;48.510;9.060;2022-08-25T06:25:07;21.20;99.90
2839;DHT22;1427;48.510;9.060;2022-08-25T06:27:37;21.20;99.90
2839;DHT22;1427;48.510;9.060;2022-08-25T06:30:08;21.30;99.90
2839;DHT22;1427;48.510;9.060;2022-08-25T06:32:37;21.30;99.90
2839;DHT22;1427;48.510;9.060;2022-08-25T06:35:09;21.50;99.90
2839;DHT22;1427;48.510;9.060;2022-08-25T06:37:38;21.60;99.90
2839;DHT22;1427;48.510;9.060;2022-08-25T06:40:09;21.70;99.90
2839;DHT22;1427;48.510;9.060;2022-08-25T06:42:39;21.50;99.90
2839;DHT22;1427;48.510;9.060;2022-08-25T06:45:08;21.30;99.90
2839;DHT22;1427;48.510;9.060;2022-08-25T06:47:36;21.40;99.90
2839;DHT22;1427;48.510;9.060;2022-08-25T06:50:05;21.70;99.90
2839;DHT22;1427;48.510;9.060;2022-08-25T06:52:33;22.00;99.90
2839;DHT22;1427;48.510;9.060;2022-08-25T06:55:01;22.20;99.90
2839;DHT22;1427;48.510;9.060;2022-08-25T06:57:29;22.40;99.90
2839;DHT22;1427;48.510;9.060;2022-08-25T07:00:04;22.50;99.90
2839;DHT22;1427;48.510;9.060;2022-08-25T07:02:33;22.70;99.90
2839;DHT22;1427;48.510;9.060;2022-08-25T07:05:01;22.80;99.90
2839;DHT22;1427;48.510;9.060;2022-08-25T07:07:31;22.80;99.90
2839;DHT22;1427;48.510;9.060;2022-08-25T07:10:09;22.60;99.90
2839;DHT22;1427;48.510;9.060;2022-08-25T07:12:39;22.70;99.90
2839;DHT22;1427;48.510;9.060;2022-08-25T07:15:09;22.80;99.90
2839;DHT22;1427;48.510;9.060;2022-08-25T07:17:52;23.10;99.90
2839;DHT22;1427;48.510;9.060;2022-08-25T07:20:21;23.00;99.90
2839;DHT22;1427;48.510;9.060;2022-08-25T07:22:50;23.30;99.90
2839;DHT22;1427;48.510;9.060;2022-08-25T07:25:18;23.30;99.90
2839;DHT22;1427;48.510;9.060;2022-08-25T07:27:46;23.70;99.90
2839;DHT22;1427;48.510;9.060;2022-08-25T07:30:16;24.10;99.90
2839;DHT22;1427;48.510;9.060;2022-08-25T07:32:46;24.60;99.60
2839;DHT22;1427;48.510;9.060;2022-08-25T07:35:21;24.70;99.30
2839;DHT22;1427;48.510;9.060;2022-08-25T07:37:54;25.00;99.10
2839;DHT22;1427;48.510;9.060;2022-08-25T07:40:24;25.20;98.50
2839;DHT22;1427;48.510;9.060;2022-08-25T07:42:54;25.30;98.60
2839;DHT22;1427;48.510;9.060;2022-08-25T07:45:27;25.50;98.70
2839;DHT22;1427;48.510;9.060;2022-08-25T07:47:57;25.50;98.50
2839;DHT22;1427;48.510;9.060;2022-08-25T07:50:26;25.80;98.00
2839;DHT22;1427;48.510;9.060;2022-08-25T07:52:55;26.00;97.50
2839;DHT22;1427;48.510;9.060;2022-08-25T07:55:25;26.10;97.60
2839;DHT22;1427;48.510;9.060;2022-08-25T07:57:54;26.30;97.30
2839;DHT22;1427;48.510;9.060;2022-08-25T08:00:26;26.50;97.40
2839;DHT22;1427;48.510;9.060;2022-08-25T08:02:56;26.50;97.10
2839;DHT22;1427;48.510;9.060;2022-08-25T08:05:24;26.80;96.70
2839;DHT22;1427;48.510;9.060;2022-08-25T08:07:54;26.90;95.90
2839;DHT22;1427;48.510;9.060;2022-08-25T08:10:22;27.10;96.40
2839;DHT22;1427;48.510;9.060;2022-08-25T08:13:11;27.00;96.90
2839;DHT22;1427;48.510;9.060;2022-08-25T08:15:45;27.30;96.40
2839;DHT22;1427;48.510;9.060;2022-08-25T08:18:14;27.40;96.20
2839;DHT22;1427;48.510;9.060;2022-08-25T08:20:45;27.60;95.30
2839;DHT22;1427;48.510;9.060;2022-08-25T08:23:14;27.50;95.70
2839;DHT22;1427;48.510;9.060;2022-08-25T08:25:42;27.60;95.90
2839;DHT22;1427;48.510;9.060;2022-08-25T08:28:10;27.90;94.90
2839;DHT22;1427;48.510;9.060;2022-08-25T08:30:39;27.90;95.20
2839;DHT22;1427;48.510;9.060;2022-08-25T08:33:22;28.00;94.30
2839;DHT22;1427;48.510;9.060;2022-08-25T08:35:58;28.20;95.30
2839;DHT22;1427;48.510;9.060;2022-08-25T08:38:31;28.50;94.90
2839;DHT22;1427;48.510;9.060;2022-08-25T08:41:07;28.70;93.60
2839;DHT22;1427;48.510;9.060;2022-08-25T08:44:07;28.70;94.00
2839;DHT22;1427;48.510;9.060;2022-08-25T08:46:53;28.80;93.20
2839;DHT22;1427;48.510;9.060;2022-08-25T08:49:32;28.80;93.90
2839;DHT22;1427;48.510;9.060;2022-08-25T08:52:03;29.10;94.40
2839;DHT22;1427;48.510;9.060;2022-08-25T08:54:35;29.30;93.40
2839;DHT22;1427;48.510;9.060;2022-08-25T08:57:11;29.20;93.00
2839;DHT22;1427;48.510;9.060;2022-08-25T08:59:48;29.50;93.60
2839;DHT22;1427;48.510;9.060;2022-08-25T09:02:25;29.50;93.00
2839;DHT22;1427;48.510;9.060;2022-08-25T09:05:18;29.50;93.10
2839;DHT22;1427;48.510;9.060;2022-08-25T09:07:49;29.70;92.30
2839;DHT22;1427;48.510;9.060;2022-08-25T09:10:22;29.70;92.70
2839;DHT22;1427;48.510;9.060;2022-08-25T09:12:58;29.80;92.40
2839;DHT22;1427;48.510;9.060;2022-08-25T09:15:40;30.00;92.30
2839;DHT22;1427;48.510;9.060;2022-08-25T09:18:33;30.10;92.80
2839;DHT22;1427;48.510;9.060;2022-08-25T09:21:27;30.20;92.20
2839;DHT22;1427;48.510;9.060;2022-08-25T09:24:12;30.40;91.60
2839;DHT22;1427;48.510;9.060;2022-08-25T09:26:57;30.40;91.50
2839;DHT22;1427;48.510;9.060;2022-08-25T09:29:44;30.40;90.80
2839;DHT22;1427;48.510;9.060;2022-08-25T09:32:16;30.30;91.10
2839;DHT22;1427;48.510;9.060;2022-08-25T09:34:57;30.40;90.50
2839;DHT22;1427;48.510;9.060;2022-08-25T09:37:27;30.80;90.30
2839;DHT22;1427;48.510;9.060;2022-08-25T09:39:57;30.90;90.60
2839;DHT22;1427;48.510;9.060;2022-08-25T09:42:47;31.00;89.60
2839;DHT22;1427;48.510;9.060;2022-08-25T09:45:31;30.90;90.60
2839;DHT22;1427;48.510;9.060;2022-08-25T09:48:00;30.90;90.20
2839;DHT22;1427;48.510;9.060;2022-08-25T09:50:30;31.00;90.40
2839;DHT22;1427;48.510;9.060;2022-08-25T09:53:12;31.30;90.30
2839;DHT22;1427;48.510;9.060;2022-08-25T09:55:46;31.40;88.80
2839;DHT22;1427;48.510;9.060;2022-08-25T09:58:26;31.40;89.90
2839;DHT22;1427;48.510;9.060;2022-08-25T10:01:05;31.70;89.30
2839;DHT22;1427;48.510;9.060;2022-08-25T10:06:05;31.90;88.00
2839;DHT22;1427;48.510;9.060;2022-08-25T10:08:52;32.20;87.90
2839;DHT22;1427;48.510;9.060;2022-08-25T10:11:31;32.20;86.20
2839;DHT22;1427;48.510;9.060;2022-08-25T10:14:17;32.10;86.70
2839;DHT22;1427;48.510;9.060;2022-08-25T10:16:46;32.20;86.20
2839;DHT22;1427;48.510;9.060;2022-08-25T10:19:23;32.00;85.80
2839;DHT22;1427;48.510;9.060;2022-08-25T10:22:05;31.90;86.60
2839;DHT22;1427;48.510;9.060;2022-08-25T10:24:35;32.00;86.50
2839;DHT22;1427;48.510;9.060;2022-08-25T10:27:16;32.20;86.10
2839;DHT22;1427;48.510;9.060;2022-08-25T10:30:07;32.20;86.40
2839;DHT22;1427;48.510;9.060;2022-08-25T10:32:59;32.50;86.90
2839;DHT22;1427;48.510;9.060;2022-08-25T10:35:34;32.40;83.80
2839;DHT22;1427;48.510;9.060;2022-08-25T10:38:10;32.40;84.90
2839;DHT22;1427;48.510;9.060;2022-08-25T10:40:53;32.60;84.90
2839;DHT22;1427;48.510;9.060;2022-08-25T10:43:30;32.80;84.60
2839;DHT22;1427;48.510;9.060;2022-08-25T10:46:07;32.90;82.30
2839;DHT22;1427;48.510;9.060;2022-08-25T10:48:55;32.00;81.40
2839;DHT22;1427;48.510;9.060;2022-08-25T10:51:37;31.90;84.10
2839;DHT22;1427;48.510;9.060;2022-08-25T10:54:15;32.40;82.90
2839;DHT22;1427;48.510;9.060;2022-08-25T10:56:53;32.50;82.50
2839;DHT22;1427;48.510;9.060;2022-08-25T10:59:42;32.00;81.90
2839;DHT22;1427;48.510;9.060;2022-08-25T11:02:36;31.60;80.60
2839;DHT22;1427;48.510;9.060;2022-08-25T11:05:14;31.40;82.20
2839;DHT22;1427;48.510;9.060;2022-08-25T11:07:53;31.40;81.60
2839;DHT22;1427;48.510;9.060;2022-08-25T11:10:26;31.50;80.80
2839;DHT22;1427;48.510;9.060;2022-08-25T11:13:03;31.80;82.50
2839;DHT22;1427;48.510;9.060;2022-08-25T11:15:40;31.70;79.80
2839;DHT22;1427;48.510;9.060;2022-08-25T11:18:32;30.90;80.60
2839;DHT22;1427;48.510;9.060;2022-08-25T11:21:04;30.60;80.80
2839;DHT22;1427;48.510;9.060;2022-08-25T11:23:38;30.60;81.00
2839;DHT22;1427;48.510;9.060;2022-08-25T11:26:10;30.90;81.80
2839;DHT22;1427;48.510;9.060;2022-08-25T11:28:53;31.40;82.50
2839;DHT22;1427;48.510;9.060;2022-08-25T11:31:24;31.90;82.20
2839;DHT22;1427;48.510;9.060;2022-08-25T11:33:54;32.40;81.00
2839;DHT22;1427;48.510;9.060;2022-08-25T11:36:28;32.70;81.10
2839;DHT22;1427;48.510;9.060;2022-08-25T11:39:10;32.90;80.10
2839;DHT22;1427;48.510;9.060;2022-08-25T11:41:50;33.20;79.50
2839;DHT22;1427;48.510;9.060;2022-08-25T11:44:45;33.10;77.00
2839;DHT22;1427;48.510;9.060;2022-08-25T11:47:55;33.10;76.70
2839;DHT22;1427;48.510;9.060;2022-08-25T11:50:29;31.50;75.80
2839;DHT22;1427;48.510;9.060;2022-08-25T11:53:17;31.00;76.70
2839;DHT22;1427;48.510;9.060;2022-08-25T11:55:55;30.70;77.00
2839;DHT22;1427;48.510;9.060;2022-08-25T11:58:46;30.90;76.70
2839;DHT22;1427;48.510;9.060;2022-08-25T12:04:31;30.80;76.10
2839;DHT22;1427;48.510;9.060;2022-08-25T12:07:25;30.70;77.40
2839;DHT22;1427;48.510;9.060;2022-08-25T12:10:12;31.00;77.40
2839;DHT22;1427;48.510;9.060;2022-08-25T12:13:03;31.00;76.90
2839;DHT22;1427;48.510;9.060;2022-08-25T12:15:55;31.30;77.90
2839;DHT22;1427;48.510;9.060;2022-08-25T12:18:42;31.50;77.70
2839;DHT22;1427;48.510;9.060;2022-08-25T12:21:27;31.90;78.90
2839;DHT22;1427;48.510;9.060;2022-08-25T12:24:13;32.30;79.60
2839;DHT22;1427;48.510;9.060;2022-08-25T12:26:47;32.70;78.70
2839;DHT22;1427;48.510;9.060;2022-08-25T12:29:29;33.00;77.20
2839;DHT22;1427;48.510;9.060;2022-08-25T12:32:10;33.10;75.00
2839;DHT22;1427;48.510;9.060;2022-08-25T12:34:52;33.10;76.20
2839;DHT22;1427;48.510;9.060;2022-08-25T12:37:24;32.80;74.50
2839;DHT22;1427;48.510;9.060;2022-08-25T12:39:58;32.60;75.90
2839;DHT22;1427;48.510;9.060;2022-08-25T12:42:34;32.60;74.10
2839;DHT22;1427;48.510;9.060;2022-08-25T12:45:21;32.40;76.10
2839;DHT22;1427;48.510;9.060;2022-08-25T12:51:02;32.50;76.50
2839;DHT22;1427;48.510;9.060;2022-08-25T12:53:34;32.50;72.50
2839;DHT22;1427;48.510;9.060;2022-08-25T12:56:06;32.00;75.00
2839;DHT22;1427;48.510;9.060;2022-08-25T12:58:47;31.90;74.90
2839;DHT22;1427;48.510;9.060;2022-08-25T13:01:33;31.80;76.70
2839;DHT22;1427;48.510;9.060;2022-08-25T13:04:35;31.90;76.50
2839;DHT22;1427;48.510;9.060;2022-08-25T13:07:18;32.10;78.50
2839;DHT22;1427;48.510;9.060;2022-08-25T13:10:18;32.50;76.60
2839;DHT22;1427;48.510;9.060;2022-08-25T13:12:51;32.50;75.30
2839;DHT22;1427;48.510;9.060;2022-08-25T13:15:33;32.60;76.10
2839;DHT22;1427;48.510;9.060;2022-08-25T13:18:18;32.70;75.60
2839;DHT22;1427;48.510;9.060;2022-08-25T13:20:49;32.80;75.40
2839;DHT22;1427;48.510;9.060;2022-08-25T13:23:26;32.80;74.40
2839;DHT22;1427;48.510;9.060;2022-08-25T13:25:57;32.90;74.90
2839;DHT22;1427;48.510;9.060;2022-08-25T13:28:29;33.00;75.20
2839;DHT22;1427;48.510;9.060;2022-08-25T13:31:02;33.00;74.10
2839;DHT22;1427;48.510;9.060;2022-08-25T13:33:32;32.80;71.40
2839;DHT22;1427;48.510;9.060;2022-08-25T13:36:06;31.60;72.90
2839;DHT22;1427;48.510;9.060;2022-08-25T13:38:51;31.30;74.10
2839;DHT22;1427;48.510;9.060;2022-08-25T13:41:25;31.30;73.70
2839;DHT22;1427;48.510;9.060;2022-08-25T13:43:59;31.20;74.20
2839;DHT22;1427;48.510;9.060;2022-08-25T13:46:28;31.20;75.70
2839;DHT22;1427;48.510;9.060;2022-08-25T13:49:03;31.60;74.30
2839;DHT22;1427;48.510;9.060;2022-08-25T13:51:32;32.00;75.50
2839;DHT22;1427;48.510;9.060;2022-08-25T13:54:02;32.10;72.10
2839;DHT22;1427;48.510;9.060;2022-08-25T13:56:37;32.20;73.10
2839;DHT22;1427;48.510;9.060;2022-08-25T13:59:20;32.50;73.70
2839;DHT22;1427;48.510;9.060;2022-08-25T14:01:50;32.30;71.00
2839;DHT22;1427;48.510;9.060;2022-08-25T14:04:28;32.40;72.20
2839;DHT22;1427;48.510;9.060;2022-08-25T14:07:22;32.40;70.80
2839;DHT22;1427;48.510;9.060;2022-08-25T14:09:53;32.20;71.10
2839;DHT22;1427;48.510;9.060;2022-08-25T14:12:29;32.10;71.50
2839;DHT22;1427;48.510;9.060;2022-08-25T14:15:03;31.90;70.60
2839;DHT22;1427;48.510;9.060;2022-08-25T14:17:32;31.50;72.20
2839;DHT22;1427;48.510;9.060;2022-08-25T14:20:16;31.60;73.10
2839;DHT22;1427;48.510;9.060;2022-08-25T14:22:45;31.80;74.00
2839;DHT22;1427;48.510;9.060;2022-08-25T14:25:13;31.80;72.70
2839;DHT22;1427;48.510;9.060;2022-08-25T14:27:43;31.90;74.30
2839;DHT22;1427;48.510;9.060;2022-08-25T14:30:34;32.00;73.30
2839;DHT22;1427;48.510;9.060;2022-08-25T14:33:03;32.20;72.30
2839;DHT22;1427;48.510;9.060;2022-08-25T14:35:32;32.30;73.70
2839;DHT22;1427;48.510;9.060;2022-08-25T14:38:09;32.40;73.10
2839;DHT22;1427;48.510;9.060;2022-08-25T14:40:38;32.40;72.80
2839;DHT22;1427;48.510;9.060;2022-08-25T14:43:08;32.50;73.20
2839;DHT22;1427;48.510;9.060;2022-08-25T14:45:39;32.50;72.90
2839;DHT22;1427;48.510;9.060;2022-08-25T14:48:11;32.60;71.90
2839;DHT22;1427;48.510;9.060;2022-08-25T14:50:41;32.30;71.10
2839;DHT22;1427;48.510;9.060;2022-08-25T14:53:09;32.10;72.20
2839;DHT22;1427;48.510;9.060;2022-08-25T14:55:38;31.80;71.00
2839;DHT22;1427;48.510;9.060;2022-08-25T14:58:07;31.70;71.20
2839;DHT22;1427;48.510;9.060;2022-08-25T15:00:40;31.70;73.20
2839;DHT22;1427;48.510;9.060;2022-08-25T15:03:13;31.60;73.00
2839;DHT22;1427;48.510;9.060;2022-08-25T15:05:43;31.20;71.40
2839;DHT22;1427;48.510;9.060;2022-08-25T15:08:13;30.60;72.70
2839;DHT22;1427;48.510;9.060;2022-08-25T15:10:59;30.50;72.80
2839;DHT22;1427;48.510;9.060;2022-08-25T15:13:35;30.40;73.80
2839;DHT22;1427;48.510;9.060;2022-08-25T15:16:07;30.70;74.00
2839;DHT22;1427;48.510;9.060;2022-08-25T15:18:36;30.90;73.30
2839;DHT22;1427;48.510;9.060;2022-08-25T15:21:04;31.10;73.60
2839;DHT22;1427;48.510;9.060;2022-08-25T15:23:33;31.30;73.70
2839;DHT22;1427;48.510;9.060;2022-08-25T15:26:02;31.50;74.10
2839;DHT22;1427;48.510;9.060;2022-08-25T15:28:31;31.60;73.10
2839;DHT22;1427;48.510;9.060;2022-08-25T15:31:00;31.50;71.70
2839;DHT22;1427;48.510;9.060;2022-08-25T15:33:28;31.30;71.90
2839;DHT22;1427;48.510;9.060;2022-08-25T15:35:57;31.00;71.80
2839;DHT22;1427;48.510;9.060;2022-08-25T15:38:25;31.00;72.00
2839;DHT22;1427;48.510;9.060;2022-08-25T15:40:53;31.00;72.20
2839;DHT22;1427;48.510;9.060;2022-08-25T15:43:23;31.00;72.50
2839;DHT22;1427;48.510;9.060;2022-08-25T15:45:51;31.00;75.60
2839;DHT22;1427;48.510;9.060;2022-08-25T15:48:21;30.90;71.80
2839;DHT22;1427;48.510;9.060;2022-08-25T15:50:53;30.90;71.60
2839;DHT22;1427;48.510;9.060;2022-08-25T15:53:22;30.80;73.20
2839;DHT22;1427;48.510;9.060;2022-08-25T15:55:52;30.60;72.90
2839;DHT22;1427;48.510;9.060;2022-08-25T15:58:19;30.50;72.00
2839;DHT22;1427;48.510;9.060;2022-08-25T16:00:47;30.50;72.30
2839;DHT22;1427;48.510;9.060;2022-08-25T16:03:23;30.40;73.00
2839;DHT22;1427;48.510;9.060;2022-08-25T16:05:52;30.50;72.40
2839;DHT22;1427;48.510;9.060;2022-08-25T16:08:20;30.50;74.20
2839;DHT22;1427;48.510;9.060;2022-08-25T16:10:48;30.50;72.60
2839;DHT22;1427;48.510;9.060;2022-08-25T16:13:17;30.50;71.70
2839;DHT22;1427;48.510;9.060;2022-08-25T16:15:46;30.40;72.30
2839;DHT22;1427;48.510;9.060;2022-08-25T16:18:20;30.40;72.80
2839;DHT22;1427;48.510;9.060;2022-08-25T16:20:50;30.30;71.40
2839;DHT22;1427;48.510;9.060;2022-08-25T16:23:19;30.20;72.20
2839;DHT22;1427;48.510;9.060;2022-08-25T16:25:48;30.10;73.20
2839;DHT22;1427;48.510;9.060;2022-08-25T16:28:18;30.20;71.80
2839;DHT22;1427;48.510;9.060;2022-08-25T16:30:50;30.20;71.10
2839;DHT22;1427;48.510;9.060;2022-08-25T16:33:19;30.10;70.90
2839;DHT22;1427;48.510;9.060;2022-08-25T16:35:47;30.00;71.80
2839;DHT22;1427;48.510;9.060;2022-08-25T16:38:17;29.90;72.50
2839;DHT22;1427;48.510;9.060;2022-08-25T16:40:45;29.80;71.20
2839;DHT22;1427;48.510;9.060;2022-08-25T16:43:13;29.70;72.10
2839;DHT22;1427;48.510;9.060;2022-08-25T16:45:43;29.60;73.20
2839;DHT22;1427;48.510;9.060;2022-08-25T16:48:12;29.70;72.80